Main page
METAR-TAF:

METAR-TAF

Airports :

De Kooy Airfield

Den Helder, Netherlands

latitude: 52-55N, longitude: 004-47E, elevation: 0 m

Current weather observation

The report was made 11 minutes ago, at 23:55 UTC
Wind 11 kt from the Southwest, varying between South and West/Southwest
Temperature 15°C
Humidity 88%
Pressure 1017 hPa
Visibility 10 km or more
Scattered clouds at a height of 1100 ft
Broken clouds at a height of 1300 ft
Overcast at a height of 2900 ft

METAR: EHKD 172355Z AUTO 22011KT 170V250 9999 SCT011 BKN013 OVC029 15/13 Q1017 GRN

Time: 02:06 (00:06 UTC)

Forecast

The report was made 10 hours and 20 minutes ago, at 13:46 UTC
Forecast valid from 17 at 13 UTC to 18 at 01 UTC
Wind 13 kt from the West/Southwest
Visibility 10 km or more
Few clouds at a height of 1600 ft
Scattered clouds at a height of 4000 ft
Broken clouds at a height of 10000 ft

TAF: EHKD 171346Z 1713/1801 24013KT 9999 FEW016 SCT040 BKN100

Weather observations and forecasts of more than 4000 airports (METAR and TAF reports).

The available stations are represented by yellow and red dots on the map.

Hover mouse over dot to see the name of the station.

Then click to see weather observations and forecasts.

To change the map : click on the green buttons with a black cross to zoom in, on the green button with a dash to zoom out, or on the green arrows for adjacent maps.


METAR-TAF: